Wenn Sie den Mauscursor in der Übersichtskarte über ein Stationssymbol ziehen, so werden die aktuellen Stationsdaten eingeblendet. Neben dem Stationsnamen wird der Zeitpunkt in MEZ eingeblendet, bis zu dem aktuelle Daten verfügbar sind. Zunächst wird die aktuelle Niederschlagsumme für das letzte Messintervall angegeben (15 Minuten). Dadurch wird ersichtlich, ob und in welcher Intensität es regnet. Danach wird die Niederschlagsumme für die vergangenen 24 Stunden angegeben. Der aktuelle Lufttemperaturwert rundet die Information zum Mouse - Over ab.   

Durch Anklicken des entsprechenden Stationssymbols gelangen Sie zu den Gangliniendarstellung der Niederschlagshöhe und der Lufttemperatur. Jeder Parameter ist für einen Zeitraum für 30 Tage dargestellt. 

Wo verfügbar, stellen wir die Niederschlagsverhältnisse des aktuellen Kalenderjahres und des Vorjahres den langjährigen Vergleichsreihen grafisch auf 2 Arten gegenüber.

Eine Grafik wird in Form von Summenlinien erstellt. In dieser wird die Niederschlagssumme für das aktuelle Kalenderjahr und jenes davor ab Jahresbeginn tageweise aufsummiert und so den Vergleichszeitreihen (ebenso als minimale, mittlere und maximale Summenlinien dargestellt) gegenübergestellt.

In einer anderen Grafik vergleichen wir die Niederschlags - Monatssummen des aktuellen Kalenderjahres und des Vorjahres mit den langjährigen Vergleichsreihen. Dabei stellen wir für die Vergleichszeitreihen das langjährige Mittel, das Maximum und das Minimum für jedes Monat dar.

Zudem können Sie die Daten für die letzten 30 Tage downloaden.

Die  Stationssymbole auf der Übersichtskarte werden entsprechend der Niederschlagshöhe in den letzten 24 Stunden vor dem angegebenen Zeitpunkt bei der jeweiligen Station eingefärbt (siehe dazu Legende neben der Übersichtskarte).

Abschließend haben wir für Sie eine Übersichtstabelle unterhalb der Übersichtskarte angefügt. Hier werden die Niederschlagsstationen des Burgenlandes alphabetisch aufgelistet die aktuellen Messwerte dargestellt und es besteht die Möglichkeit der Navigation zu den bereits beschriebenen grafischen Darstellungen.

Stationsname Zeit [MEZ] NS [mm/15min] NS [mm/24h] Temp [°C] Luftfeuchte [%]
Andau 27.01.2023 06:00 0,0 0,0 0,6
Apetlon - A79 27.01.2023 06:00 0,0 0,0 1,0 100,0
Aspang 27.01.2023 06:00 0,0 1,0 -1,9
Bad Tatzmannsdorf 27.01.2023 06:00 0,0 1,1 -0,9
Bernstein 27.01.2023 06:00 0,0 1,7 -3,6
Bonisdorf 27.01.2023 06:00 0,0 0,8 -1,5 100,0
Bruckneudorf 27.01.2023 06:00 0,0 1,7 0,1
Deutsch Jahrndorf 27.01.2023 06:00 0,0 0,0 0,5 94,0
Deutsch Kaltenbrunn 27.01.2023 06:00 0,0 0,4 -1,5
Deutschkreutz 27.01.2023 06:00 0,0 0,4 0,0 92,0
Donnerskirchen 27.01.2023 06:00 0,0 0,7 0,5 81,0
Drassburg 27.01.2023 06:00 0,0 1,5 -0,8 96,0
Dürnbach 27.01.2023 06:00 0,0 0,0 -1,0 84,0
Eisenstadt 27.01.2023 06:00 0,0 0,9 -0,4 99,0
Feldbach 27.01.2023 06:00 0,0 0,6 -0,8
Fischbach 27.01.2023 06:00 0,0 0,0 -5,4
Frankenau 27.01.2023 06:00 0,0 0,0 0,0 93,0
Frauenkirchen 27.01.2023 06:00 0,0 0,0 -0,1 100,0
Fürstenfeld 27.01.2023 06:00 0,0 0,1 -0,4
Gattendorf 27.01.2023 06:00 0,0 0,0 0,1 89,0
Glasing 27.01.2023 06:00 0,0 0,0 -0,1
Gleisdorf 27.01.2023 06:00 0,0 0,0 -0,7
Halbturn 27.01.2023 06:00 0,0 0,0 0,4 94,0
Heiligenkreuz 27.01.2023 06:00 0,0 0,3 -0,1 86,0
Hirschenkogel 27.01.2023 06:00 0,0 0,0 -0,7
Hirschenstein 27.01.2023 06:00 0,0 0,9 -4,1 100,0
Illmitz - Biologische Station 27.01.2023 06:00 0,0 0,1 0,6
Karl 27.01.2023 06:00 0,0 0,6 -1,3 92,0
Kleinzicken 27.01.2023 06:00 0,0 0,1 -0,3
Kobersdorf 27.01.2023 06:00 0,0 0,6 -1,6 97,0
Lutzmannsburg 27.01.2023 06:00 0,0 0,0 -0,1
Mattersburg 27.01.2023 06:00 0,0 1,5 -0,9
Moenichkirchen 27.01.2023 06:00 0,0 0,2 -6,0
Nebersdorf 27.01.2023 06:00 0,0 0,0 0,0 90,0
Neumarkt an der Raab 27.01.2023 06:00 0,0 0,4 -0,2 100,0
Neusiedl am See 27.01.2023 06:00 0,0 0,0 0,5
Neustift an der Rosalia 27.01.2023 06:00 0,0 2,6 -3,5 100,0
Nickelsdorf 27.01.2023 06:00 0,0 0,0 0,5 100,0
Nikitsch 27.01.2023 06:00 0,0 0,1 -0,6 94,0
Oberpullendorf 27.01.2023 06:00 0,0 0,4 0,3 87,0
Oberwart 27.01.2023 06:00 0,0 0,7 -0,8 87,0
Pinkafeld 27.01.2023 06:00 0,0 0,6 -1,3 100,0
Pottschach 27.01.2023 06:00 0,0 0,9 -1,7
Puchberg 27.01.2023 06:00 0,0 0,1 -2,1
Ritzing 27.01.2023 06:00 0,0 1,0 -1,1 100,0
Rust 27.01.2023 06:00 0,0 0,8 0,8 87,0
Seibersdorf 27.01.2023 06:00 0,0 1,1 -0,4
Sieggraben 27.01.2023 06:00 0,0 2,2 -2,4 100,0
St. Margarethen - Berg 27.01.2023 06:00 0,0 1,7 -0,4 92,0
St. Michael 27.01.2023 06:00 0,0 0,3 -1,2 94,0
Stadtschlaining 27.01.2023 06:00 0,0 1,1 -2,4 48,0
Trausdorf 27.01.2023 06:00 0,0 1,0 0,4 95,0
Wiener Neustadt 27.01.2023 06:00 0,0 0,6 -0,6
Woerterberg 27.01.2023 06:00 0,0 0,3 -1,6
Wulkaprodersdorf 27.01.2023 06:00 0,0 1,1 0,5 90,0
Zurndorf - Friedrichshof 27.01.2023 06:00 0,0 0,0 -0,1 100,0